createdAt,value
2018-06-05T00:02:25.499Z,8.10
2018-06-05T00:04:55.303Z,8.87
2018-06-05T00:07:25.127Z,9.23
2018-06-05T00:09:54.960Z,9.57
2018-06-05T00:12:24.832Z,9.13
2018-06-05T00:14:54.640Z,10.23
2018-06-05T00:17:24.473Z,9.03
2018-06-05T00:19:54.299Z,8.77
2018-06-05T00:22:24.084Z,9.80
2018-06-05T00:24:53.945Z,8.57
2018-06-05T00:27:23.815Z,8.40
2018-06-05T00:29:53.597Z,8.87
2018-06-05T00:32:23.447Z,8.00
2018-06-05T00:34:53.248Z,8.43
2018-06-05T00:37:23.079Z,9.60
2018-06-05T00:39:52.889Z,9.50
2018-06-05T00:42:22.709Z,10.00
2018-06-05T00:44:52.599Z,10.60
2018-06-05T00:47:22.477Z,10.00
2018-06-05T00:49:52.433Z,10.43
2018-06-05T00:52:22.280Z,10.47
2018-06-05T00:54:52.131Z,12.43
2018-06-05T00:57:21.982Z,10.30
2018-06-05T00:59:51.840Z,9.53
2018-06-05T01:02:21.703Z,9.50
2018-06-05T01:04:51.520Z,9.73
2018-06-05T01:07:21.328Z,8.90
2018-06-05T01:09:51.101Z,8.00
2018-06-05T01:12:20.951Z,8.30
2018-06-05T01:14:50.736Z,8.80
2018-06-05T01:17:20.596Z,8.53
2018-06-05T01:19:50.411Z,8.50
2018-06-05T01:22:20.234Z,8.70
2018-06-05T01:24:50.048Z,8.47
2018-06-05T01:27:19.880Z,8.30
2018-06-05T01:29:49.679Z,8.53
2018-06-05T01:32:19.515Z,8.77
2018-06-05T01:34:49.356Z,8.73
2018-06-05T01:37:19.173Z,7.90
2018-06-05T01:39:48.997Z,8.57
2018-06-05T01:42:18.844Z,8.30
2018-06-05T01:44:48.643Z,8.03
2018-06-05T01:47:18.492Z,7.87
2018-06-05T01:49:48.310Z,7.67
2018-06-05T01:52:18.136Z,6.90
2018-06-05T01:54:47.904Z,7.50
2018-06-05T01:57:17.753Z,7.63
2018-06-05T01:59:47.616Z,6.70
2018-06-05T02:02:17.455Z,6.87
2018-06-05T02:04:47.273Z,9.93
2018-06-05T02:07:17.065Z,7.13
2018-06-05T02:09:46.898Z,6.63
2018-06-05T02:12:16.727Z,6.13
2018-06-05T02:14:46.549Z,7.23
2018-06-05T02:17:16.444Z,7.20
2018-06-05T02:19:46.340Z,16.70
2018-06-05T02:22:16.124Z,6.77
2018-06-05T02:24:45.979Z,7.10
2018-06-05T02:27:15.808Z,7.40
2018-06-05T02:29:45.652Z,10.20
2018-06-05T02:32:15.433Z,7.80
2018-06-05T02:34:45.304Z,6.50
2018-06-05T02:37:15.268Z,8.00
2018-06-05T02:39:45.044Z,8.50
2018-06-05T02:42:14.918Z,8.60
2018-06-05T02:44:44.807Z,9.50
2018-06-05T02:47:14.632Z,8.17
2018-06-05T02:49:44.527Z,8.37
2018-06-05T02:52:14.340Z,9.37
2018-06-05T02:54:44.196Z,9.53
2018-06-05T02:57:13.996Z,9.67
2018-06-05T02:59:43.844Z,11.33
2018-06-05T03:02:13.687Z,11.73
2018-06-05T03:04:43.505Z,11.40
2018-06-05T03:07:13.367Z,12.03
2018-06-05T03:09:43.156Z,11.17
2018-06-05T03:12:13.041Z,10.20
2018-06-05T03:14:42.836Z,9.33
2018-06-05T03:17:12.676Z,9.73
2018-06-05T03:19:42.517Z,10.27
2018-06-05T03:22:12.320Z,9.40
2018-06-05T03:24:42.192Z,9.03
2018-06-05T03:27:12.064Z,9.90
2018-06-05T03:29:41.843Z,10.47
2018-06-05T03:32:11.668Z,10.37
2018-06-05T03:34:41.470Z,9.73
2018-06-05T03:37:11.309Z,14.00
2018-06-05T03:39:41.100Z,9.70
2018-06-05T03:42:10.917Z,10.00
2018-06-05T03:44:40.717Z,10.47
2018-06-05T03:47:10.545Z,9.50
2018-06-05T03:49:41.280Z,65.17
2018-06-05T03:52:11.650Z,151.80
2018-06-05T03:54:41.535Z,513.97
2018-06-05T03:57:11.340Z,267.60
2018-06-05T03:59:41.180Z,119.03
2018-06-05T04:02:11.035Z,132.37
2018-06-05T04:04:40.919Z,43.97
2018-06-05T04:07:10.764Z,41.30
2018-06-05T04:09:40.603Z,42.73
2018-06-05T04:12:10.459Z,28.87
2018-06-05T04:14:40.276Z,15.93
2018-06-05T04:17:10.158Z,13.33
2018-06-05T04:19:40.010Z,15.07
2018-06-05T04:22:09.820Z,25.37
2018-06-05T04:24:39.700Z,13.13
2018-06-05T04:27:09.634Z,20.03
2018-06-05T04:29:39.472Z,15.00
2018-06-05T04:32:09.455Z,10.23
2018-06-05T04:34:39.307Z,9.97
2018-06-05T04:37:09.215Z,14.83
2018-06-05T04:39:39.095Z,11.63
2018-06-05T04:42:08.894Z,16.50
2018-06-05T04:44:38.909Z,19.43
2018-06-05T04:47:08.731Z,15.23
2018-06-05T04:49:38.592Z,15.20
2018-06-05T04:52:08.476Z,8.70
2018-06-05T04:54:38.321Z,20.67
2018-06-05T04:57:08.147Z,17.27
2018-06-05T04:59:38.000Z,14.10
2018-06-05T05:02:07.820Z,8.90
2018-06-05T05:04:37.700Z,10.50
2018-06-05T05:07:07.508Z,17.63
2018-06-05T05:09:37.473Z,9.60
2018-06-05T05:12:07.267Z,8.97
2018-06-05T05:14:37.164Z,9.70
2018-06-05T05:17:07.060Z,13.70
2018-06-05T05:19:37.011Z,13.83
2018-06-05T05:22:06.974Z,11.77
2018-06-05T05:24:36.932Z,14.73
2018-06-05T05:27:06.949Z,10.60
2018-06-05T05:29:36.875Z,10.07
2018-06-05T05:34:39.498Z,13.70
2018-06-05T05:37:09.456Z,8.20
2018-06-05T05:39:39.417Z,7.57
2018-06-05T05:42:09.336Z,9.50
2018-06-05T05:44:39.281Z,12.50
2018-06-05T05:47:09.292Z,13.17
2018-06-05T05:49:39.242Z,7.13
2018-06-05T05:52:10.083Z,6.87
2018-06-05T05:54:40.036Z,10.90
2018-06-05T05:57:09.901Z,15.07
2018-06-05T05:59:39.873Z,28.27
2018-06-05T06:02:09.779Z,12.73
2018-06-05T06:04:39.827Z,10.40
2018-06-05T06:07:09.863Z,10.27
2018-06-05T06:09:40.244Z,7.23
2018-06-05T06:12:10.297Z,12.27
2018-06-05T06:14:40.347Z,11.30
2018-06-05T06:17:10.268Z,15.23
2018-06-05T06:19:40.201Z,11.60
2018-06-05T06:22:10.189Z,16.87
2018-06-05T06:24:40.137Z,17.07
2018-06-05T06:27:10.278Z,22.43
2018-06-05T06:29:40.207Z,24.03
2018-06-05T06:32:10.088Z,8.27
2018-06-05T06:34:39.936Z,10.73
2018-06-05T06:37:09.963Z,6.73
2018-06-05T06:39:39.891Z,19.80
2018-06-05T06:42:09.756Z,16.10
2018-06-05T06:44:39.608Z,14.57
2018-06-05T06:47:09.579Z,10.80
2018-06-05T06:49:39.564Z,13.23
2018-06-05T06:52:09.507Z,9.30
2018-06-05T06:54:39.426Z,8.47
2018-06-05T06:57:09.292Z,14.63
2018-06-05T06:59:39.255Z,8.83
2018-06-05T07:02:09.148Z,8.23
2018-06-05T07:04:38.981Z,9.10
2018-06-05T07:07:08.899Z,8.97
2018-06-05T07:09:38.845Z,9.13
2018-06-05T07:12:08.756Z,10.07
2018-06-05T07:14:38.609Z,9.03
2018-06-05T07:17:08.554Z,10.83
2018-06-05T07:19:38.491Z,9.50
2018-06-05T07:22:08.386Z,10.63
2018-06-05T07:24:38.276Z,8.93
2018-06-05T07:27:08.215Z,10.90
2018-06-05T07:29:38.299Z,8.77
2018-06-05T07:32:08.214Z,8.53
2018-06-05T07:34:38.122Z,9.40
2018-06-05T07:37:07.988Z,10.07
2018-06-05T07:39:37.847Z,9.20
2018-06-05T07:42:07.808Z,8.77
2018-06-05T07:44:37.619Z,9.47
2018-06-05T07:47:07.529Z,9.03
2018-06-05T07:49:37.528Z,9.40
2018-06-05T07:52:07.489Z,9.27
2018-06-05T07:54:37.511Z,8.93
2018-06-05T07:57:07.404Z,9.23
2018-06-05T07:59:37.372Z,9.27
2018-06-05T08:02:07.281Z,8.70
2018-06-05T08:04:37.213Z,9.27
2018-06-05T08:07:07.093Z,9.83
2018-06-05T08:09:36.961Z,9.60
2018-06-05T08:12:06.834Z,10.07
2018-06-05T08:14:36.679Z,9.90
2018-06-05T08:17:06.701Z,9.63
2018-06-05T08:19:36.540Z,9.40
2018-06-05T08:22:06.518Z,10.03
2018-06-05T08:24:36.428Z,8.83
2018-06-05T08:27:06.307Z,8.90
2018-06-05T08:29:36.189Z,8.87
2018-06-05T08:32:10.425Z,10.33
2018-06-05T08:34:40.410Z,8.80
2018-06-05T08:37:10.277Z,8.40
2018-06-05T08:39:40.244Z,9.80
2018-06-05T08:42:10.040Z,8.97
2018-06-05T08:44:39.911Z,8.40
2018-06-05T08:47:09.809Z,9.07
2018-06-05T08:49:39.714Z,9.20
2018-06-05T08:52:09.636Z,11.37
2018-06-05T08:54:39.438Z,10.63
2018-06-05T08:57:09.431Z,15.47
2018-06-05T08:59:40.342Z,8.17
2018-06-05T09:02:11.472Z,7.93
2018-06-05T09:04:41.705Z,11.63
2018-06-05T09:07:11.667Z,8.63
2018-06-05T09:09:41.538Z,12.07
2018-06-05T09:12:11.468Z,20.63
2018-06-05T09:14:41.286Z,6.60
2018-06-05T09:17:11.492Z,5.80
2018-06-05T09:19:41.349Z,6.00
2018-06-05T09:22:11.874Z,6.67
2018-06-05T09:24:41.927Z,6.20
2018-06-05T09:27:13.745Z,6.70
2018-06-05T09:29:43.624Z,6.27
2018-06-05T09:32:13.492Z,5.80
2018-06-05T09:34:43.431Z,5.73
2018-06-05T09:37:20.069Z,6.87
2018-06-05T09:39:54.201Z,6.83
2018-06-05T09:42:25.095Z,6.47
2018-06-05T09:44:55.565Z,9.30
2018-06-05T09:47:29.056Z,5.70
2018-06-05T09:50:03.342Z,6.40
2018-06-05T09:52:36.200Z,8.00
2018-06-05T09:55:10.758Z,50.50
2018-06-05T09:57:44.793Z,5.97
2018-06-05T10:00:16.780Z,6.03
2018-06-05T10:02:47.240Z,6.93
2018-06-05T10:05:17.729Z,5.90
2018-06-05T10:07:48.130Z,13.30
2018-06-05T10:10:17.975Z,8.37
2018-06-05T10:12:47.805Z,5.53
2018-06-05T10:15:17.632Z,5.87
2018-06-05T10:17:47.563Z,6.57
2018-06-05T10:20:17.462Z,6.63
2018-06-05T10:22:47.272Z,6.03
2018-06-05T10:25:17.104Z,6.03
2018-06-05T10:27:46.910Z,6.83
2018-06-05T10:30:16.821Z,11.40
2018-06-05T10:32:46.767Z,7.27
2018-06-05T10:35:16.641Z,6.80
2018-06-05T10:37:46.472Z,6.53
2018-06-05T10:40:16.558Z,5.77
2018-06-05T10:42:46.456Z,6.73
2018-06-05T10:45:16.286Z,6.00
2018-06-05T10:47:46.164Z,10.17
2018-06-05T10:50:16.120Z,6.17
2018-06-05T10:52:46.072Z,14.37
2018-06-05T10:55:15.985Z,6.20
2018-06-05T10:57:45.828Z,6.43
2018-06-05T11:00:15.902Z,7.03
2018-06-05T11:02:45.842Z,7.13
2018-06-05T11:05:15.669Z,7.53
2018-06-05T11:07:45.488Z,6.27
2018-06-05T11:10:15.428Z,5.23
2018-06-05T11:12:45.347Z,5.77
2018-06-05T11:15:17.026Z,5.57
2018-06-05T11:17:46.917Z,5.00
2018-06-05T11:20:16.913Z,5.70
2018-06-05T11:22:46.854Z,7.80
2018-06-05T11:25:16.788Z,5.40
2018-06-05T11:27:46.677Z,7.53
2018-06-05T11:30:16.601Z,5.40
2018-06-05T11:32:46.567Z,11.57
2018-06-05T11:35:16.465Z,5.27
2018-06-05T11:37:46.512Z,5.57
2018-06-05T11:40:16.318Z,5.17
2018-06-05T11:42:46.187Z,6.30
2018-06-05T11:45:16.148Z,5.47
2018-06-05T11:47:46.004Z,6.00
2018-06-05T11:50:15.944Z,7.07
2018-06-05T11:52:45.881Z,5.17
2018-06-05T11:55:15.802Z,6.33
2018-06-05T11:57:45.726Z,5.00
2018-06-05T12:00:15.884Z,5.03
2018-06-05T12:02:45.825Z,5.43
2018-06-05T12:05:15.738Z,12.63
2018-06-05T12:07:45.689Z,7.13
2018-06-05T12:10:15.607Z,12.60
2018-06-05T12:12:45.525Z,7.50
2018-06-05T12:15:15.353Z,7.70
2018-06-05T12:17:45.239Z,21.00
2018-06-05T12:20:15.068Z,9.43
2018-06-05T12:22:44.924Z,4.80
2018-06-05T12:25:14.741Z,6.10
2018-06-05T12:27:44.625Z,6.70
2018-06-05T12:30:14.452Z,5.67
2018-06-05T12:32:44.348Z,7.80
2018-06-05T12:35:14.157Z,9.37
2018-06-05T12:37:44.040Z,6.83
2018-06-05T12:40:13.925Z,5.20
2018-06-05T12:42:43.955Z,6.93
2018-06-05T12:45:13.792Z,5.70
2018-06-05T12:47:43.740Z,5.73
2018-06-05T12:50:13.590Z,9.37
2018-06-05T12:52:43.392Z,5.50
2018-06-05T12:55:13.343Z,5.73
2018-06-05T12:57:43.317Z,5.00
2018-06-05T13:00:13.144Z,5.23
2018-06-05T13:02:43.005Z,7.13
2018-06-05T13:05:12.860Z,5.53
2018-06-05T13:07:42.713Z,6.33
2018-06-05T13:10:12.596Z,5.90
2018-06-05T13:12:42.532Z,5.03
2018-06-05T13:15:12.520Z,5.13
2018-06-05T13:17:42.496Z,5.50
2018-06-05T13:20:12.359Z,5.53
2018-06-05T13:22:42.242Z,5.37
2018-06-05T13:25:12.142Z,5.13
2018-06-05T13:27:42.000Z,6.17
2018-06-05T13:30:11.880Z,5.13
2018-06-05T13:32:44.085Z,9.40
2018-06-05T13:35:14.237Z,5.10
2018-06-05T13:37:44.181Z,13.17
2018-06-05T13:40:14.133Z,4.80
2018-06-05T13:42:43.966Z,7.37
2018-06-05T13:45:13.860Z,5.70
2018-06-05T13:47:43.806Z,6.30
2018-06-05T13:50:14.987Z,5.80
2018-06-05T13:52:44.979Z,5.07
2018-06-05T13:55:14.884Z,5.40
2018-06-05T13:57:44.755Z,5.40
2018-06-05T14:00:15.041Z,6.00
2018-06-05T14:02:45.764Z,5.93
2018-06-05T14:05:15.685Z,9.80
2018-06-05T14:07:45.616Z,5.53
2018-06-05T14:10:15.572Z,6.47
2018-06-05T14:12:45.377Z,8.53
2018-06-05T14:15:15.342Z,6.77
2018-06-05T14:17:45.305Z,6.33
2018-06-05T14:20:15.205Z,6.40
2018-06-05T14:22:45.078Z,6.70
2018-06-05T14:25:15.020Z,6.27
2018-06-05T14:27:45.029Z,6.30
2018-06-05T14:30:14.991Z,7.03
2018-06-05T14:32:44.884Z,6.93
2018-06-05T14:35:14.701Z,8.40
2018-06-05T14:37:44.536Z,9.27
2018-06-05T14:40:14.428Z,11.57
2018-06-05T14:42:44.340Z,6.67
2018-06-05T14:45:14.298Z,5.70
2018-06-05T14:47:44.024Z,6.03
2018-06-05T14:50:13.876Z,6.37
2018-06-05T14:52:43.692Z,5.80
2018-06-05T14:55:13.536Z,5.77
2018-06-05T14:57:43.385Z,9.63
2018-06-05T15:00:13.172Z,6.47
2018-06-05T15:02:43.013Z,6.27
2018-06-05T15:05:12.795Z,6.13
2018-06-05T15:07:42.676Z,7.90
2018-06-05T15:10:12.476Z,7.83
2018-06-05T15:12:42.254Z,6.83
2018-06-05T15:15:12.100Z,5.43
2018-06-05T15:17:41.889Z,8.87
2018-06-05T15:20:11.780Z,6.13
2018-06-05T15:22:41.576Z,6.80
2018-06-05T15:25:11.428Z,6.27
2018-06-05T15:27:41.266Z,9.87
2018-06-05T15:30:11.205Z,6.57
2018-06-05T15:32:41.034Z,8.03
2018-06-05T15:35:10.867Z,6.50
2018-06-05T15:37:40.728Z,7.17
2018-06-05T15:40:11.305Z,6.77
2018-06-05T15:42:42.289Z,7.70
2018-06-05T15:45:12.268Z,9.70
2018-06-05T15:47:42.806Z,6.10
2018-06-05T15:50:13.488Z,7.07
2018-06-05T15:52:43.356Z,6.87
2018-06-05T15:55:13.784Z,8.80
2018-06-05T15:57:43.632Z,7.47
2018-06-05T16:00:13.489Z,10.23
2018-06-05T16:02:43.280Z,8.60
2018-06-05T16:05:13.113Z,9.17
2018-06-05T16:07:42.973Z,10.77
2018-06-05T16:10:12.772Z,6.70
2018-06-05T16:12:42.609Z,7.50
2018-06-05T16:15:12.385Z,9.17
2018-06-05T16:17:42.197Z,7.83
2018-06-05T16:20:12.015Z,10.20
2018-06-05T16:22:41.933Z,8.50
2018-06-05T16:25:11.764Z,8.90
2018-06-05T16:27:41.592Z,8.70
2018-06-05T16:30:11.428Z,8.17
2018-06-05T16:32:41.231Z,8.33
2018-06-05T16:35:11.082Z,8.57
2018-06-05T16:37:40.875Z,8.53
2018-06-05T16:40:10.707Z,8.57
2018-06-05T16:42:40.626Z,9.07
2018-06-05T16:45:10.456Z,9.27
2018-06-05T16:47:40.350Z,8.27
2018-06-05T16:50:10.208Z,9.23
2018-06-05T16:52:40.032Z,8.40
2018-06-05T16:55:09.868Z,8.80
2018-06-05T16:57:39.800Z,8.70
2018-06-05T17:00:09.668Z,8.90
2018-06-05T17:02:39.548Z,9.13
2018-06-05T17:05:09.356Z,10.40
2018-06-05T17:07:39.225Z,9.17
2018-06-05T17:10:09.024Z,10.23
2018-06-05T17:12:38.868Z,9.10
2018-06-05T17:15:08.717Z,11.13
2018-06-05T17:17:38.517Z,8.80
2018-06-05T17:20:08.356Z,8.80
2018-06-05T17:22:38.147Z,8.90
2018-06-05T17:25:07.996Z,8.97
2018-06-05T17:27:37.840Z,8.70
2018-06-05T17:30:07.647Z,8.50
2018-06-05T17:32:37.488Z,8.93
2018-06-05T17:35:07.312Z,8.00
2018-06-05T17:37:37.176Z,10.03
2018-06-05T17:40:07.043Z,8.47
2018-06-05T17:42:36.830Z,7.83
2018-06-05T17:45:06.669Z,9.07
2018-06-05T17:47:36.551Z,10.00
2018-06-05T17:50:06.377Z,12.43
2018-06-05T17:52:36.236Z,8.10
2018-06-05T17:55:06.415Z,9.03
2018-06-05T17:57:36.388Z,10.57
2018-06-05T18:00:06.248Z,9.57
2018-06-05T18:02:36.052Z,9.43
2018-06-05T18:05:05.920Z,9.43
2018-06-05T18:07:35.737Z,9.40
2018-06-05T18:10:05.576Z,9.87
2018-06-05T18:12:35.489Z,10.17
2018-06-05T18:15:05.453Z,9.73
2018-06-05T18:17:35.252Z,9.90
2018-06-05T18:20:05.176Z,10.10
2018-06-05T18:22:35.040Z,10.23
2018-06-05T18:25:04.856Z,9.67
2018-06-05T18:27:34.736Z,9.93
2018-06-05T18:30:04.761Z,13.87
2018-06-05T18:32:34.592Z,10.37
2018-06-05T18:35:04.460Z,11.13
2018-06-05T18:37:34.260Z,10.43
2018-06-05T18:40:04.204Z,10.83
2018-06-05T18:42:34.010Z,10.60
2018-06-05T18:45:03.865Z,10.43
2018-06-05T18:47:33.679Z,11.43
2018-06-05T18:50:03.559Z,10.77
2018-06-05T18:52:33.434Z,10.37
2018-06-05T18:55:03.313Z,10.23
2018-06-05T18:57:33.143Z,10.70
2018-06-05T19:00:02.997Z,11.20
2018-06-05T19:02:32.784Z,10.10
2018-06-05T19:05:02.608Z,10.23
2018-06-05T19:07:32.402Z,10.00
2018-06-05T19:10:02.232Z,10.20
2018-06-05T19:12:32.025Z,10.50
2018-06-05T19:15:01.862Z,10.10
2018-06-05T19:17:31.721Z,10.40
2018-06-05T19:20:01.547Z,9.80
2018-06-05T19:22:31.371Z,10.67
2018-06-05T19:25:01.168Z,9.70
2018-06-05T19:27:31.069Z,10.87
2018-06-05T19:30:00.944Z,10.97
2018-06-05T19:32:30.792Z,11.37
2018-06-05T19:35:00.629Z,10.67
2018-06-05T19:37:30.468Z,9.77
2018-06-05T19:40:00.307Z,10.10
2018-06-05T19:42:30.205Z,10.27
2018-06-05T19:45:00.086Z,10.00
2018-06-05T19:47:29.897Z,10.60
2018-06-05T19:49:59.750Z,9.97
2018-06-05T19:52:29.589Z,10.10
2018-06-05T19:54:59.388Z,10.33
2018-06-05T19:57:29.248Z,10.07
2018-06-05T19:59:59.079Z,10.57
2018-06-05T20:02:28.907Z,10.73
2018-06-05T20:04:58.748Z,10.30
2018-06-05T20:07:28.548Z,10.47
2018-06-05T20:09:58.392Z,10.63
2018-06-05T20:12:28.243Z,11.07
2018-06-05T20:14:58.084Z,11.17
2018-06-05T20:17:27.937Z,10.93
2018-06-05T20:19:57.797Z,10.57
2018-06-05T20:22:27.618Z,10.67
2018-06-05T20:24:57.496Z,10.90
2018-06-05T20:27:27.304Z,10.93
2018-06-05T20:29:57.164Z,11.67
2018-06-05T20:32:27.036Z,10.70
2018-06-05T20:34:56.829Z,10.50
2018-06-05T20:37:26.677Z,10.20
2018-06-05T20:39:56.469Z,10.63
2018-06-05T20:42:26.336Z,10.40
2018-06-05T20:44:56.132Z,10.63
2018-06-05T20:47:25.975Z,10.90
2018-06-05T20:49:55.821Z,10.33
2018-06-05T20:52:25.838Z,11.90
2018-06-05T20:54:55.636Z,11.90
2018-06-05T20:57:25.470Z,11.40
2018-06-05T20:59:55.307Z,11.70
2018-06-05T21:02:25.104Z,13.00
2018-06-05T21:04:54.952Z,12.97
2018-06-05T21:07:24.757Z,11.50
2018-06-05T21:09:54.599Z,11.37
2018-06-05T21:12:24.412Z,11.83
2018-06-05T21:14:54.257Z,11.60
2018-06-05T21:17:24.068Z,12.00
2018-06-05T21:19:53.909Z,12.63
2018-06-05T21:22:23.792Z,11.13
2018-06-05T21:24:53.681Z,12.40
2018-06-05T21:27:23.494Z,12.73
2018-06-05T21:29:53.331Z,12.50
2018-06-05T21:32:23.111Z,12.73
2018-06-05T21:34:52.847Z,12.57
2018-06-05T21:37:22.652Z,12.83
2018-06-05T21:39:52.469Z,12.60
2018-06-05T21:42:22.198Z,11.90
2018-06-05T21:44:51.989Z,12.27
2018-06-05T21:47:21.735Z,13.03
2018-06-05T21:49:51.543Z,12.97
2018-06-05T21:52:21.279Z,12.07
2018-06-05T21:54:51.064Z,12.33
2018-06-05T21:57:20.795Z,12.10
2018-06-05T21:59:50.570Z,12.50
2018-06-05T22:02:20.328Z,12.47
2018-06-05T22:04:50.170Z,12.50
2018-06-05T22:07:19.939Z,13.00
2018-06-05T22:09:49.719Z,12.43
2018-06-05T22:12:19.500Z,12.53
2018-06-05T22:14:49.335Z,13.27
2018-06-05T22:17:19.095Z,12.60
2018-06-05T22:19:48.920Z,13.27
2018-06-05T22:22:18.726Z,13.87
2018-06-05T22:24:48.499Z,13.67
2018-06-05T22:27:18.255Z,14.80
2018-06-05T22:29:48.047Z,15.20
2018-06-05T22:32:17.780Z,14.70
2018-06-05T22:34:47.571Z,14.93
2018-06-05T22:37:17.361Z,15.37
2018-06-05T22:39:47.110Z,14.57
2018-06-05T22:42:16.887Z,14.93
2018-06-05T22:44:46.616Z,15.87
2018-06-05T22:47:16.418Z,15.50
2018-06-05T22:49:46.166Z,14.70
2018-06-05T22:52:15.991Z,13.37
2018-06-05T22:54:45.710Z,13.47
2018-06-05T22:57:15.499Z,13.70
2018-06-05T22:59:45.244Z,13.13
2018-06-05T23:02:15.059Z,12.60
2018-06-05T23:04:44.835Z,12.87
2018-06-05T23:07:14.615Z,12.60
2018-06-05T23:09:44.471Z,12.63
2018-06-05T23:12:14.224Z,12.40
2018-06-05T23:14:44.002Z,12.50
2018-06-05T23:17:13.795Z,12.63
2018-06-05T23:19:43.539Z,12.10
2018-06-05T23:22:13.316Z,11.67
2018-06-05T23:24:43.111Z,11.47
2018-06-05T23:27:12.926Z,12.27
2018-06-05T23:29:42.791Z,12.70
2018-06-05T23:32:12.615Z,12.40
2018-06-05T23:34:42.429Z,12.30
2018-06-05T23:37:12.204Z,13.13
2018-06-05T23:39:42.059Z,14.73
2018-06-05T23:42:11.876Z,15.00
2018-06-05T23:44:41.758Z,14.33
2018-06-05T23:47:11.607Z,14.77
2018-06-05T23:49:41.404Z,14.67
2018-06-05T23:52:11.249Z,14.57
2018-06-05T23:54:41.108Z,14.67
2018-06-05T23:57:10.925Z,14.80
2018-06-05T23:59:40.815Z,14.37
